Time;durP1;ratioP1;P1;durP2;ratioP2;P2;SDS_P1;SDS_P2;PMS_P1;PMS_P2;Temp;Humidity;BMP_temperature;BMP_pressure;BME280_temperature;BME280_humidity;BME280_pressure;Samples;Min_cycle;Max_cycle;Signal;HPM_P1;HPM_P2
2021/12/06 00:00:50;;;;;;;36.92;23.67;;;;;;;;;;5005647;28;94109;-70
2021/12/06 00:03:19;;;;;;;30.30;24.98;;;;;;;;;;4992474;28;94089;-70
2021/12/06 00:05:46;;;;;;;36.55;25.05;;;;;;;;;;4991892;28;92836;-70
2021/12/06 00:08:13;;;;;;;32.40;23.85;;;;;;;;;;4992987;28;91719;-70
2021/12/06 00:10:40;;;;;;;32.65;24.80;;;;;;;;;;4992885;28;92478;-70
2021/12/06 00:13:07;;;;;;;35.13;24.58;;;;;;;;;;4992454;28;94508;-70
2021/12/06 00:15:37;;;;;;;33.67;26.55;;;;;;;;;;4990586;28;95444;-70
2021/12/06 00:18:03;;;;;;;34.80;25.85;;;;;;;;;;4992937;28;96031;-69
2021/12/06 00:20:29;;;;;;;39.00;24.67;;;;;;;;;;4991789;28;94504;-70
2021/12/06 00:22:56;;;;;;;37.08;26.08;;;;;;;;;;4996629;28;92526;-69
2021/12/06 00:25:22;;;;;;;36.38;26.73;;;;;;;;;;4992354;28;93453;-70
2021/12/06 00:27:48;;;;;;;33.30;25.25;;;;;;;;;;4991997;28;93215;-70
2021/12/06 00:30:16;;;;;;;45.63;26.45;;;;;;;;;;4991004;28;94671;-70
2021/12/06 00:32:43;;;;;;;37.22;27.70;;;;;;;;;;4991535;28;93719;-70
2021/12/06 00:35:17;;;;;;;36.10;27.02;;;;;;;;;;4990610;28;92514;-70
2021/12/06 00:37:53;;;;;;;35.60;25.30;;;;;;;;;;5000544;28;93072;-70
2021/12/06 00:40:20;;;;;;;43.45;28.42;;;;;;;;;;5009056;28;96618;-69
2021/12/06 00:42:46;;;;;;;41.17;25.58;;;;;;;;;;5011995;28;92510;-69
2021/12/06 00:45:12;;;;;;;43.38;27.50;;;;;;;;;;5014033;28;94367;-69
2021/12/06 00:47:39;;;;;;;39.75;28.40;;;;;;;;;;5012434;28;92415;-69
2021/12/06 00:50:06;;;;;;;48.90;28.10;;;;;;;;;;5010246;28;94724;-70
2021/12/06 00:52:33;;;;;;;48.58;29.83;;;;;;;;;;4995042;28;93491;-70
2021/12/06 00:55:00;;;;;;;41.38;29.98;;;;;;;;;;5003821;28;92783;-70
2021/12/06 00:57:26;;;;;;;44.97;29.67;;;;;;;;;;4972444;28;93888;-70
2021/12/06 00:59:52;;;;;;;50.17;31.27;;;;;;;;;;4987369;28;94306;-70
2021/12/06 01:02:20;;;;;;;51.08;31.65;;;;;;;;;;4986544;28;93603;-70
2021/12/06 01:04:47;;;;;;;53.13;31.40;;;;;;;;;;4972404;28;95505;-70
2021/12/06 01:07:14;;;;;;;55.80;31.23;;;;;;;;;;5001296;28;92550;-70
2021/12/06 01:09:41;;;;;;;51.60;30.40;;;;;;;;;;5011141;28;92854;-70
2021/12/06 01:12:08;;;;;;;48.90;30.38;;;;;;;;;;5011852;28;92747;-70
2021/12/06 01:14:36;;;;;;;49.95;30.85;;;;;;;;;;5010319;28;92597;-70
2021/12/06 01:17:03;;;;;;;53.75;32.28;;;;;;;;;;5011133;28;93799;-70
2021/12/06 01:19:30;;;;;;;52.63;29.20;;;;;;;;;;5011756;28;93096;-70
2021/12/06 01:22:13;;;;;;;46.20;30.25;;;;;;;;;;5009956;28;92356;-70
2021/12/06 01:24:52;;;;;;;56.65;32.10;;;;;;;;;;5009861;28;94509;-70
2021/12/06 01:27:37;;;;;;;51.13;31.05;;;;;;;;;;5012717;28;93557;-70
2021/12/06 01:33:29;;;;;;;51.20;28.75;;;;;;;;;;4971835;28;94311;-70
2021/12/06 01:41:21;;;;;;;43.45;30.50;;;;;;;;;;5009672;28;93193;-71
2021/12/06 01:44:07;;;;;;;56.55;33.22;;;;;;;;;;5011432;28;92560;-71
2021/12/06 01:46:38;;;;;;;38.47;28.05;;;;;;;;;;5009825;28;94310;-71
2021/12/06 01:49:05;;;;;;;45.95;30.55;;;;;;;;;;5010641;28;93387;-71
2021/12/06 01:51:31;;;;;;;46.00;29.58;;;;;;;;;;5008255;28;92533;-71
2021/12/06 01:53:58;;;;;;;46.72;29.98;;;;;;;;;;4991562;28;93014;-71
2021/12/06 01:56:25;;;;;;;50.45;31.75;;;;;;;;;;4988395;28;94905;-71
2021/12/06 01:58:51;;;;;;;49.28;30.90;;;;;;;;;;4989167;28;97578;-71
2021/12/06 02:01:19;;;;;;;52.08;31.05;;;;;;;;;;4989695;28;95016;-71
2021/12/06 02:03:46;;;;;;;49.65;30.17;;;;;;;;;;4990035;28;92513;-71
2021/12/06 02:06:14;;;;;;;56.65;31.15;;;;;;;;;;4992577;28;92891;-71
2021/12/06 02:08:41;;;;;;;49.70;29.65;;;;;;;;;;5011421;28;93177;-71
2021/12/06 02:11:08;;;;;;;51.10;32.30;;;;;;;;;;5009778;28;92553;-71
2021/12/06 02:13:46;;;;;;;52.58;31.95;;;;;;;;;;5012695;28;95639;-71
2021/12/06 02:16:14;;;;;;;47.78;31.35;;;;;;;;;;5010837;28;92491;-71
2021/12/06 02:18:45;;;;;;;53.42;32.10;;;;;;;;;;5009667;28;94037;-71
2021/12/06 02:21:20;;;;;;;50.42;32.53;;;;;;;;;;4995265;28;98415;-71
2021/12/06 02:23:48;;;;;;;50.38;31.65;;;;;;;;;;4991884;28;92625;-71
2021/12/06 02:26:15;;;;;;;51.58;33.75;;;;;;;;;;4992896;28;94394;-71
2021/12/06 02:28:42;;;;;;;55.95;32.55;;;;;;;;;;4992891;28;95916;-71
2021/12/06 02:31:09;;;;;;;50.40;31.95;;;;;;;;;;5009867;28;92536;-71
2021/12/06 02:33:36;;;;;;;50.55;33.45;;;;;;;;;;4994526;28;92533;-71
2021/12/06 02:36:03;;;;;;;55.95;32.10;;;;;;;;;;4997215;28;93289;-71
2021/12/06 02:38:30;;;;;;;49.95;32.58;;;;;;;;;;4994521;28;93088;-71
2021/12/06 02:40:57;;;;;;;56.45;33.63;;;;;;;;;;4992238;28;93258;-71
2021/12/06 02:43:25;;;;;;;52.55;34.55;;;;;;;;;;4992781;28;92522;-71
2021/12/06 02:45:51;;;;;;;47.90;29.30;;;;;;;;;;4991249;28;94819;-72
2021/12/06 02:48:19;;;;;;;49.80;32.55;;;;;;;;;;4992055;28;93695;-71
2021/12/06 02:50:47;;;;;;;55.58;33.45;;;;;;;;;;4992655;28;92596;-71
2021/12/06 02:53:15;;;;;;;54.55;31.17;;;;;;;;;;4995009;28;93486;-71
2021/12/06 02:55:43;;;;;;;54.92;33.63;;;;;;;;;;4991912;28;93260;-71
2021/12/06 02:58:33;;;;;;;48.07;30.87;;;;;;;;;;4995349;28;92627;-71
2021/12/06 03:01:01;;;;;;;55.50;33.08;;;;;;;;;;4991959;28;94868;-71
2021/12/06 03:03:30;;;;;;;73.35;31.45;;;;;;;;;;4993260;28;92026;-71
2021/12/06 03:05:58;;;;;;;69.65;34.63;;;;;;;;;;4994201;28;92532;-71
2021/12/06 03:08:39;;;;;;;57.58;33.67;;;;;;;;;;4992283;28;93249;-71
2021/12/06 03:11:07;;;;;;;66.32;34.83;;;;;;;;;;4991131;28;94959;-71
2021/12/06 03:13:34;;;;;;;63.63;34.50;;;;;;;;;;5025602;28;95815;-71
2021/12/06 03:16:00;;;;;;;59.70;34.05;;;;;;;;;;4992843;28;92951;-71
2021/12/06 03:18:28;;;;;;;61.47;35.35;;;;;;;;;;4997083;28;92480;-71
2021/12/06 03:20:54;;;;;;;53.75;32.25;;;;;;;;;;4992243;28;93703;-71
2021/12/06 03:23:21;;;;;;;63.90;34.28;;;;;;;;;;4991400;28;92775;-71
2021/12/06 03:25:48;;;;;;;61.63;33.38;;;;;;;;;;4993577;28;93013;-71
2021/12/06 03:28:15;;;;;;;66.82;34.60;;;;;;;;;;4992388;28;92553;-71
2021/12/06 03:30:42;;;;;;;74.10;37.65;;;;;;;;;;4978680;28;92526;-71
2021/12/06 03:33:09;;;;;;;85.32;40.83;;;;;;;;;;4989317;28;94859;-72
2021/12/06 03:35:37;;;;;;;84.93;39.55;;;;;;;;;;4986549;28;97615;-70
2021/12/06 03:38:03;;;;;;;87.03;36.88;;;;;;;;;;4987531;28;92913;-70
2021/12/06 03:40:30;;;;;;;87.75;37.85;;;;;;;;;;4995337;28;93433;-70
2021/12/06 03:42:57;;;;;;;86.97;35.55;;;;;;;;;;4991432;28;92997;-71
2021/12/06 03:45:24;;;;;;;86.32;38.78;;;;;;;;;;4992827;28;93185;-70
2021/12/06 03:47:51;;;;;;;90.05;39.95;;;;;;;;;;4991852;28;95744;-70
2021/12/06 03:50:19;;;;;;;97.13;39.13;;;;;;;;;;4991733;28;94053;-70
2021/12/06 03:52:46;;;;;;;90.85;39.63;;;;;;;;;;4993178;28;92714;-70
2021/12/06 03:55:13;;;;;;;80.22;38.00;;;;;;;;;;5025047;28;94514;-71
2021/12/06 03:57:41;;;;;;;89.10;39.97;;;;;;;;;;5011113;28;92597;-70
2021/12/06 04:00:11;;;;;;;93.88;39.70;;;;;;;;;;5006718;28;94953;-70
2021/12/06 04:02:47;;;;;;;80.72;36.70;;;;;;;;;;5011290;28;93231;-71
2021/12/06 04:05:15;;;;;;;92.05;39.35;;;;;;;;;;4992389;28;92937;-71
2021/12/06 04:07:42;;;;;;;87.57;37.85;;;;;;;;;;5007852;28;96377;-70
2021/12/06 04:10:09;;;;;;;83.93;38.45;;;;;;;;;;4992285;28;92542;-70
2021/12/06 04:12:37;;;;;;;78.50;37.00;;;;;;;;;;5010839;28;95334;-71
2021/12/06 04:15:07;;;;;;;80.57;37.00;;;;;;;;;;5011476;28;95285;-70
2021/12/06 04:17:37;;;;;;;78.45;35.80;;;;;;;;;;5011682;28;92333;-70
2021/12/06 04:20:06;;;;;;;89.53;37.33;;;;;;;;;;5010901;28;93154;-71
2021/12/06 04:22:33;;;;;;;75.93;37.15;;;;;;;;;;5009414;28;94055;-71
2021/12/06 04:25:02;;;;;;;75.45;34.50;;;;;;;;;;5013076;28;94985;-70
2021/12/06 04:27:29;;;;;;;78.82;35.17;;;;;;;;;;5010953;28;94051;-70
2021/12/06 04:29:56;;;;;;;82.35;37.40;;;;;;;;;;4997209;28;92451;-70
2021/12/06 04:32:23;;;;;;;80.28;36.53;;;;;;;;;;4991219;28;95502;-70
2021/12/06 04:34:51;;;;;;;73.22;36.33;;;;;;;;;;4991901;28;93158;-71
2021/12/06 04:37:18;;;;;;;89.05;37.40;;;;;;;;;;4991006;28;92473;-70
2021/12/06 04:39:47;;;;;;;91.78;38.85;;;;;;;;;;4991054;28;95463;-71
2021/12/06 04:42:13;;;;;;;92.68;39.72;;;;;;;;;;4990882;28;92559;-70
2021/12/06 04:44:40;;;;;;;79.53;38.47;;;;;;;;;;5005472;28;92539;-70
2021/12/06 04:47:07;;;;;;;86.85;39.85;;;;;;;;;;5012565;28;94857;-70
2021/12/06 04:49:35;;;;;;;85.88;39.38;;;;;;;;;;5009203;28;94979;-70
2021/12/06 04:52:04;;;;;;;74.47;37.42;;;;;;;;;;5010957;28;95601;-70
2021/12/06 04:54:34;;;;;;;71.88;35.15;;;;;;;;;;5010024;28;95617;-70
2021/12/06 04:57:09;;;;;;;81.65;36.35;;;;;;;;;;5010872;28;92552;-70
2021/12/06 04:59:43;;;;;;;63.35;32.35;;;;;;;;;;5010041;28;93880;-71
2021/12/06 05:02:12;;;;;;;68.18;35.33;;;;;;;;;;4970207;28;95672;-70
2021/12/06 05:04:47;;;;;;;73.80;37.90;;;;;;;;;;4971136;28;93037;-71
2021/12/06 05:07:20;;;;;;;78.60;39.03;;;;;;;;;;4974216;28;95543;-71
2021/12/06 05:09:47;;;;;;;;;;;;;;;;;;5004066;28;92655;-71
2021/12/06 05:12:17;;;;;;;71.78;36.55;;;;;;;;;;5008875;28;92672;-71
2021/12/06 05:14:45;;;;;;;71.85;36.17;;;;;;;;;;4989137;28;97865;-71
2021/12/06 05:17:12;;;;;;;76.43;37.65;;;;;;;;;;4989590;28;92432;-70
2021/12/06 05:19:39;;;;;;;81.90;39.08;;;;;;;;;;4990306;28;93039;-70
2021/12/06 05:22:07;;;;;;;86.38;39.58;;;;;;;;;;4989711;28;95069;-71
2021/12/06 05:24:36;;;;;;;81.78;39.03;;;;;;;;;;4991569;28;92583;-70
2021/12/06 05:27:05;;;;;;;82.07;38.95;;;;;;;;;;5007291;28;95730;-71
2021/12/06 05:29:33;;;;;;;79.90;38.80;;;;;;;;;;4993423;28;94017;-70
2021/12/06 05:32:00;;;;;;;82.80;39.63;;;;;;;;;;4991400;28;94087;-71
2021/12/06 05:34:33;;;;;;;73.85;38.47;;;;;;;;;;4991296;28;92467;-71
2021/12/06 05:36:59;;;;;;;;;;;;;;;;;;4991914;28;92624;-71
2021/12/06 05:39:30;;;;;;;79.93;36.50;;;;;;;;;;4991087;28;123902;-70
2021/12/06 05:41:58;;;;;;;85.47;39.20;;;;;;;;;;4991440;28;94272;-70
2021/12/06 05:44:24;;;;;;;85.13;38.15;;;;;;;;;;4990827;28;92432;-70
2021/12/06 05:46:50;;;;;;;86.05;40.47;;;;;;;;;;4992121;28;93549;-71
2021/12/06 05:49:17;;;;;;;80.40;40.75;;;;;;;;;;4991012;28;94158;-71
2021/12/06 05:51:43;;;;;;;90.10;39.17;;;;;;;;;;4993894;28;92915;-71
2021/12/06 05:54:09;;;;;;;77.28;39.88;;;;;;;;;;4991255;28;94102;-71
2021/12/06 05:56:36;;;;;;;83.63;40.22;;;;;;;;;;4991511;28;91717;-71
2021/12/06 05:59:02;;;;;;;80.72;39.55;;;;;;;;;;5007509;28;92762;-70
2021/12/06 06:01:30;;;;;;;82.53;37.78;;;;;;;;;;5014405;28;93829;-70
2021/12/06 06:04:01;;;;;;;86.15;39.45;;;;;;;;;;5013184;28;94870;-70
2021/12/06 06:06:28;;;;;;;75.22;38.55;;;;;;;;;;5012424;28;98002;-71
2021/12/06 06:08:55;;;;;;;77.93;39.67;;;;;;;;;;5015144;28;93588;-71
2021/12/06 06:11:22;;;;;;;69.93;37.47;;;;;;;;;;5015329;28;92445;-71
2021/12/06 06:13:48;;;;;;;73.22;39.35;;;;;;;;;;5021087;28;94327;-71
2021/12/06 06:16:18;;;;;;;76.15;40.00;;;;;;;;;;5018202;28;92434;-71
2021/12/06 06:18:45;;;;;;;68.20;38.00;;;;;;;;;;5017587;28;94236;-71
2021/12/06 06:21:12;;;;;;;72.30;38.38;;;;;;;;;;5019461;28;93515;-71
2021/12/06 06:23:39;;;;;;;77.65;38.55;;;;;;;;;;5017273;28;92426;-70
2021/12/06 06:26:05;;;;;;;73.85;37.92;;;;;;;;;;5016748;28;94779;-71
2021/12/06 06:28:32;;;;;;;74.18;38.35;;;;;;;;;;5006854;28;96141;-70
2021/12/06 06:30:58;;;;;;;73.40;39.03;;;;;;;;;;5006672;28;92854;-71
2021/12/06 06:33:25;;;;;;;66.53;36.85;;;;;;;;;;4995810;28;94480;-70
2021/12/06 06:35:51;;;;;;;70.80;37.60;;;;;;;;;;4998384;28;93237;-70
2021/12/06 06:38:18;;;;;;;76.10;40.05;;;;;;;;;;4994730;28;93199;-70
2021/12/06 06:40:44;;;;;;;61.65;34.55;;;;;;;;;;4994398;28;93632;-70
2021/12/06 06:43:14;;;;;;;75.30;39.38;;;;;;;;;;5007195;28;92690;-70
2021/12/06 06:45:40;;;;;;;68.40;38.05;;;;;;;;;;5012815;28;93222;-70
2021/12/06 06:48:06;;;;;;;61.40;35.63;;;;;;;;;;4993553;28;94213;-70
2021/12/06 06:50:33;;;;;;;68.93;38.30;;;;;;;;;;4994031;28;92456;-70
2021/12/06 06:52:59;;;;;;;70.50;40.50;;;;;;;;;;4992718;28;94852;-70
2021/12/06 06:55:25;;;;;;;73.30;39.97;;;;;;;;;;4993097;28;94255;-71
2021/12/06 06:57:53;;;;;;;68.97;39.95;;;;;;;;;;4997422;28;92532;-70
2021/12/06 07:00:24;;;;;;;80.80;39.83;;;;;;;;;;4994110;28;93848;-70
2021/12/06 07:02:50;;;;;;;63.28;38.65;;;;;;;;;;4992395;28;92756;-70
2021/12/06 07:05:17;;;;;;;72.45;39.28;;;;;;;;;;4993575;28;94053;-71
2021/12/06 07:07:43;;;;;;;72.15;38.88;;;;;;;;;;5008494;28;93606;-70
2021/12/06 07:10:10;;;;;;;70.55;39.50;;;;;;;;;;5006023;28;93681;-71
2021/12/06 07:12:44;;;;;;;73.03;38.47;;;;;;;;;;5010783;28;92733;-71
2021/12/06 07:15:12;;;;;;;75.30;39.38;;;;;;;;;;5004845;28;94601;-71
2021/12/06 07:17:39;;;;;;;71.82;40.05;;;;;;;;;;4994595;28;94929;-70
2021/12/06 07:20:06;;;;;;;71.95;38.58;;;;;;;;;;4992108;28;93487;-70
2021/12/06 07:22:32;;;;;;;64.40;37.22;;;;;;;;;;4989628;28;92717;-71
2021/12/06 07:24:59;;;;;;;77.13;40.75;;;;;;;;;;4992061;28;93845;-70
2021/12/06 07:27:25;;;;;;;66.85;38.33;;;;;;;;;;4992471;28;94517;-71
2021/12/06 07:29:51;;;;;;;69.60;38.53;;;;;;;;;;4988477;28;93155;-70
2021/12/06 07:32:18;;;;;;;82.25;41.83;;;;;;;;;;4983424;28;95008;-70
2021/12/06 07:34:44;;;;;;;77.28;41.03;;;;;;;;;;4992949;28;93868;-70
2021/12/06 07:37:13;;;;;;;70.38;39.95;;;;;;;;;;4992693;28;93210;-70
2021/12/06 07:39:40;;;;;;;65.82;38.40;;;;;;;;;;4990886;28;94129;-70
2021/12/06 07:42:06;;;;;;;64.60;37.75;;;;;;;;;;4992428;28;94924;-70
2021/12/06 07:44:34;;;;;;;66.53;38.42;;;;;;;;;;4992313;28;96488;-70
2021/12/06 07:47:06;;;;;;;70.32;39.15;;;;;;;;;;4995745;28;96038;-71
2021/12/06 07:49:32;;;;;;;74.25;39.90;;;;;;;;;;4998916;27;92621;-71
2021/12/06 07:52:19;;;;;;;59.75;37.40;;;;;;;;;;4999080;28;93248;-70
2021/12/06 07:54:45;;;;;;;70.55;37.55;;;;;;;;;;4992651;28;94143;-71
2021/12/06 07:57:13;;;;;;;68.47;38.22;;;;;;;;;;4996063;28;92513;-70
2021/12/06 07:59:43;;;;;;;63.03;37.97;;;;;;;;;;5000535;28;92682;-71
2021/12/06 08:02:12;;;;;;;71.00;36.55;;;;;;;;;;5001658;28;94914;-72
2021/12/06 08:04:39;;;;;;;65.70;38.75;;;;;;;;;;4994930;28;94289;-71
2021/12/06 08:07:07;;;;;;;66.68;36.20;;;;;;;;;;4993845;28;95038;-71
2021/12/06 08:09:33;;;;;;;64.50;36.22;;;;;;;;;;4994084;28;92550;-72
2021/12/06 08:12:00;;;;;;;62.53;35.53;;;;;;;;;;4993730;28;93431;-71
2021/12/06 08:14:27;;;;;;;63.38;34.90;;;;;;;;;;4992345;28;94183;-71
2021/12/06 08:16:53;;;;;;;70.82;38.92;;;;;;;;;;4992102;28;92514;-71
2021/12/06 08:19:20;;;;;;;72.32;38.25;;;;;;;;;;4985357;28;94082;-71
2021/12/06 08:21:49;;;;;;;62.65;37.47;;;;;;;;;;4975711;28;93491;-71
2021/12/06 08:24:15;;;;;;;70.20;37.47;;;;;;;;;;4979030;28;92038;-72
2021/12/06 08:26:42;;;;;;;61.60;36.17;;;;;;;;;;4971896;28;93349;-71
2021/12/06 08:29:11;;;;;;;66.40;37.83;;;;;;;;;;4972661;28;93380;-71
2021/12/06 08:31:37;;;;;;;64.30;36.20;;;;;;;;;;4970968;28;94881;-71
2021/12/06 08:34:04;;;;;;;68.07;37.55;;;;;;;;;;4972372;28;93785;-71
2021/12/06 08:36:30;;;;;;;58.33;34.85;;;;;;;;;;4974713;28;92607;-71
2021/12/06 08:38:59;;;;;;;58.70;35.90;;;;;;;;;;4991780;28;93200;-71
2021/12/06 08:41:27;;;;;;;74.47;39.35;;;;;;;;;;4991725;28;93435;-71
2021/12/06 08:43:56;;;;;;;72.65;37.92;;;;;;;;;;4977838;28;92676;-71
2021/12/06 08:46:27;;;;;;;63.90;34.75;;;;;;;;;;4974823;28;93176;-71
2021/12/06 08:48:54;;;;;;;65.60;34.05;;;;;;;;;;4973076;28;92191;-72
2021/12/06 08:51:29;;;;;;;51.58;33.40;;;;;;;;;;4987293;28;92785;-72
2021/12/06 08:53:57;;;;;;;61.72;36.50;;;;;;;;;;4991877;28;93052;-71
2021/12/06 08:56:23;;;;;;;64.38;36.97;;;;;;;;;;4990654;28;94982;-71
2021/12/06 08:58:50;;;;;;;66.45;36.72;;;;;;;;;;4992759;28;96887;-72
2021/12/06 09:01:18;;;;;;;66.13;38.20;;;;;;;;;;4991385;28;94269;-71
2021/12/06 09:04:09;;;;;;;64.82;36.75;;;;;;;;;;4992650;28;92457;-72
2021/12/06 09:06:37;;;;;;;62.55;38.33;;;;;;;;;;4992103;28;92521;-72
2021/12/06 09:09:07;;;;;;;49.75;30.73;;;;;;;;;;4994777;28;92542;-72
2021/12/06 09:11:35;;;;;;;65.32;36.92;;;;;;;;;;4991514;28;92763;-72
2021/12/06 09:14:02;;;;;;;62.40;38.05;;;;;;;;;;4992161;28;93130;-71
2021/12/06 09:16:28;;;;;;;61.53;37.13;;;;;;;;;;4990260;28;92625;-70
2021/12/06 09:19:00;;;;;;;66.80;35.08;;;;;;;;;;4990949;28;92462;-70
2021/12/06 09:21:27;;;;;;;67.38;35.75;;;;;;;;;;4989120;28;95792;-70
2021/12/06 09:23:54;;;;;;;58.90;34.38;;;;;;;;;;4992190;27;94279;-70
2021/12/06 09:26:21;;;;;;;61.13;36.28;;;;;;;;;;4991116;28;94213;-71
2021/12/06 09:28:47;;;;;;;70.00;38.75;;;;;;;;;;4993319;28;95988;-70
2021/12/06 09:31:16;;;;;;;66.70;38.20;;;;;;;;;;4991497;28;94220;-71
2021/12/06 09:33:42;;;;;;;67.60;38.92;;;;;;;;;;4994693;28;93588;-70
2021/12/06 09:36:12;;;;;;;74.38;41.50;;;;;;;;;;4994776;28;93188;-70
2021/12/06 09:38:40;;;;;;;52.83;33.47;;;;;;;;;;4994895;28;93220;-70
2021/12/06 09:41:11;;;;;;;53.78;34.38;;;;;;;;;;4994804;28;94188;-70
2021/12/06 09:43:39;;;;;;;61.13;38.13;;;;;;;;;;4994159;28;93194;-70
2021/12/06 09:46:10;;;;;;;57.78;36.63;;;;;;;;;;4993181;28;95241;-70
2021/12/06 09:48:37;;;;;;;60.17;35.13;;;;;;;;;;4991079;28;95124;-70
2021/12/06 09:51:05;;;;;;;53.53;34.67;;;;;;;;;;4985783;28;92526;-70
2021/12/06 09:53:33;;;;;;;62.45;35.50;;;;;;;;;;4994201;28;93458;-71
2021/12/06 09:56:03;;;;;;;56.83;34.13;;;;;;;;;;4982810;28;92525;-71
2021/12/06 09:58:30;;;;;;;38.97;23.40;;;;;;;;;;4973774;28;94623;-71
2021/12/06 10:00:59;;;;;;;53.92;34.50;;;;;;;;;;4974747;28;94475;-71
2021/12/06 10:03:29;;;;;;;54.72;36.05;;;;;;;;;;4975321;28;92339;-71
2021/12/06 10:06:02;;;;;;;57.03;34.60;;;;;;;;;;4974524;28;93374;-71
2021/12/06 10:08:29;;;;;;;59.35;34.47;;;;;;;;;;4979158;28;94308;-71
2021/12/06 10:10:56;;;;;;;57.65;34.75;;;;;;;;;;4992126;28;94986;-71
2021/12/06 10:13:25;;;;;;;55.58;35.47;;;;;;;;;;4983663;28;95912;-71
2021/12/06 10:15:54;;;;;;;51.92;32.22;;;;;;;;;;4974198;28;92557;-71
2021/12/06 10:18:20;;;;;;;49.28;33.22;;;;;;;;;;4980601;28;94071;-71
2021/12/06 10:20:48;;;;;;;59.85;32.40;;;;;;;;;;4974417;28;94467;-71
2021/12/06 10:23:15;;;;;;;61.10;33.45;;;;;;;;;;4974207;28;92451;-71
2021/12/06 10:25:43;;;;;;;53.60;33.28;;;;;;;;;;4992055;28;94940;-71
2021/12/06 10:28:11;;;;;;;53.13;32.67;;;;;;;;;;4994379;28;92889;-70
2021/12/06 10:30:40;;;;;;;63.65;35.35;;;;;;;;;;4993889;28;92520;-71
2021/12/06 10:33:08;;;;;;;58.17;35.30;;;;;;;;;;4992999;28;93666;-71
2021/12/06 10:35:38;;;;;;;56.42;33.10;;;;;;;;;;4994877;28;96465;-71
2021/12/06 10:38:04;;;;;;;80.68;41.97;;;;;;;;;;4994294;28;95376;-70
2021/12/06 10:40:32;;;;;;;58.92;36.00;;;;;;;;;;4993381;28;94512;-71
2021/12/06 10:43:00;;;;;;;70.93;37.90;;;;;;;;;;4994057;28;92496;-72
2021/12/06 10:45:28;;;;;;;80.78;42.65;;;;;;;;;;4993218;28;93400;-71
2021/12/06 10:48:04;;;;;;;62.97;35.45;;;;;;;;;;4992844;28;94371;-72
2021/12/06 10:50:31;;;;;;;88.15;37.10;;;;;;;;;;4989006;28;92485;-72
2021/12/06 10:52:59;;;;;;;70.72;38.03;;;;;;;;;;4981671;28;94770;-72
2021/12/06 10:55:28;;;;;;;62.60;37.15;;;;;;;;;;4993420;28;93833;-71
2021/12/06 10:57:57;;;;;;;66.15;35.47;;;;;;;;;;4996999;28;92417;-72
2021/12/06 11:00:59;;;;;;;81.85;39.63;;;;;;;;;;4991340;28;96014;-71
2021/12/06 11:03:29;;;;;;;75.40;38.95;;;;;;;;;;4951038;28;92610;-72
2021/12/06 11:06:02;;;;;;;57.40;33.10;;;;;;;;;;4985356;28;94202;-71
2021/12/06 11:08:30;;;;;;;61.15;37.05;;;;;;;;;;4992990;28;94290;-72
2021/12/06 11:10:58;;;;;;;62.85;37.58;;;;;;;;;;4993656;28;92519;-72
2021/12/06 11:13:24;;;;;;;70.28;40.25;;;;;;;;;;4994454;27;93035;-71
2021/12/06 11:16:11;;;;;;;73.43;41.70;;;;;;;;;;4994090;28;93539;-72
2021/12/06 11:18:40;;;;;;;70.13;37.47;;;;;;;;;;5006191;28;92018;-72
2021/12/06 11:21:14;;;;;;;71.05;39.13;;;;;;;;;;5015650;28;93618;-71
2021/12/06 11:23:59;;;;;;;77.47;40.85;;;;;;;;;;5013554;28;92498;-72
2021/12/06 11:26:26;;;;;;;58.50;33.03;;;;;;;;;;5011182;28;94863;-71
2021/12/06 11:28:52;;;;;;;67.45;34.88;;;;;;;;;;5012869;28;94096;-71
2021/12/06 11:31:19;;;;;;;73.53;37.78;;;;;;;;;;5011583;28;93665;-72
2021/12/06 11:33:56;;;;;;;75.93;39.97;;;;;;;;;;5013332;28;92910;-71
2021/12/06 11:36:23;;;;;;;71.65;38.05;;;;;;;;;;5012062;28;93242;-72
2021/12/06 11:38:50;;;;;;;89.45;42.53;;;;;;;;;;5013183;28;92497;-71
2021/12/06 11:41:16;;;;;;;82.80;43.40;;;;;;;;;;5015925;28;94078;-72
2021/12/06 11:43:43;;;;;;;92.30;45.65;;;;;;;;;;5012892;28;93596;-71
2021/12/06 11:46:10;;;;;;;86.35;42.83;;;;;;;;;;5004770;28;92497;-72
2021/12/06 11:48:39;;;;;;;86.70;42.88;;;;;;;;;;4993108;28;93238;-71
2021/12/06 11:51:08;;;;;;;95.07;44.00;;;;;;;;;;4990769;28;95772;-72
2021/12/06 11:53:38;;;;;;;86.38;42.95;;;;;;;;;;4992585;28;96366;-72
2021/12/06 11:56:09;;;;;;;80.75;40.72;;;;;;;;;;4990803;28;94274;-72
2021/12/06 11:58:37;;;;;;;63.47;33.22;;;;;;;;;;4993114;28;92483;-72
2021/12/06 12:01:11;;;;;;;60.13;34.20;;;;;;;;;;4998929;28;94665;-72
2021/12/06 12:03:38;;;;;;;64.25;35.30;;;;;;;;;;5014757;28;93969;-73
2021/12/06 12:06:20;;;;;;;63.40;35.47;;;;;;;;;;5012716;28;94285;-72
2021/12/06 12:08:47;;;;;;;57.42;33.38;;;;;;;;;;5013054;28;92927;-72
2021/12/06 12:11:13;;;;;;;54.47;32.30;;;;;;;;;;5012318;28;92407;-72
2021/12/06 12:13:42;;;;;;;47.70;29.50;;;;;;;;;;5012867;28;93975;-73
2021/12/06 12:16:11;;;;;;;41.90;27.88;;;;;;;;;;4997129;28;96343;-73
2021/12/06 12:18:39;;;;;;;50.22;29.35;;;;;;;;;;4992682;28;92472;-73
2021/12/06 12:21:06;;;;;;;44.95;27.27;;;;;;;;;;4990273;28;92866;-74
2021/12/06 12:23:36;;;;;;;45.08;29.55;;;;;;;;;;4992028;28;93767;-73
2021/12/06 12:26:10;;;;;;;52.75;28.75;;;;;;;;;;4995011;28;92443;-71
2021/12/06 12:28:41;;;;;;;46.85;30.05;;;;;;;;;;4992085;28;94059;-72
2021/12/06 12:31:09;;;;;;;47.17;29.48;;;;;;;;;;4992642;28;92489;-72
2021/12/06 12:33:36;;;;;;;50.58;29.23;;;;;;;;;;4992336;28;94216;-72
2021/12/06 12:36:05;;;;;;;43.55;28.63;;;;;;;;;;4992211;28;93720;-72
2021/12/06 12:38:34;;;;;;;41.47;26.40;;;;;;;;;;4991534;28;92750;-72
2021/12/06 12:41:02;;;;;;;40.97;24.55;;;;;;;;;;4990938;28;95329;-72
2021/12/06 12:43:58;;;;;;;41.58;25.65;;;;;;;;;;4991953;28;93463;-72
2021/12/06 12:46:32;;;;;;;35.08;23.98;;;;;;;;;;4981917;28;92566;-72
2021/12/06 12:49:01;;;;;;;41.88;27.05;;;;;;;;;;4995484;28;94049;-72
2021/12/06 12:51:30;;;;;;;46.42;27.15;;;;;;;;;;4991904;28;92425;-72
2021/12/06 12:54:09;;;;;;;47.38;29.10;;;;;;;;;;4991205;28;93483;-73
2021/12/06 12:56:38;;;;;;;50.63;28.88;;;;;;;;;;4991786;28;94595;-72
2021/12/06 12:59:23;;;;;;;41.88;25.58;;;;;;;;;;4992886;28;92271;-72
2021/12/06 13:02:10;;;;;;;40.58;26.77;;;;;;;;;;4991772;28;93311;-72
2021/12/06 13:05:07;;;;;;;36.75;23.65;;;;;;;;;;4989091;28;93287;-72
2021/12/06 13:07:51;;;;;;;40.30;25.30;;;;;;;;;;4972306;28;95112;-72
2021/12/06 13:10:21;;;;;;;33.45;23.17;;;;;;;;;;4988649;28;96605;-72
2021/12/06 13:13:09;;;;;;;41.92;23.85;;;;;;;;;;4990621;28;92551;-72
2021/12/06 13:15:35;;;;;;;39.55;23.67;;;;;;;;;;4971205;28;94538;-72
2021/12/06 13:18:06;;;;;;;37.60;24.10;;;;;;;;;;4979484;28;94421;-73
2021/12/06 13:20:37;;;;;;;47.97;28.00;;;;;;;;;;4971229;28;92605;-72
2021/12/06 13:23:08;;;;;;;40.33;24.90;;;;;;;;;;4989115;28;92966;-73
2021/12/06 13:25:35;;;;;;;36.50;22.02;;;;;;;;;;5000773;28;92287;-72
2021/12/06 13:28:06;;;;;;;36.85;22.40;;;;;;;;;;4991606;28;93326;-72
2021/12/06 13:30:42;;;;;;;35.38;21.80;;;;;;;;;;4990941;28;93331;-72
2021/12/06 13:33:09;;;;;;;39.28;22.40;;;;;;;;;;4990030;28;96767;-72
2021/12/06 13:35:42;;;;;;;38.17;24.30;;;;;;;;;;4993245;28;92570;-72
2021/12/06 13:38:08;;;;;;;47.55;25.60;;;;;;;;;;4991567;28;94309;-72
2021/12/06 13:40:37;;;;;;;43.13;22.40;;;;;;;;;;4991237;28;92498;-73
2021/12/06 13:43:08;;;;;;;52.83;28.38;;;;;;;;;;4991147;28;93113;-72
2021/12/06 13:45:37;;;;;;;40.97;23.38;;;;;;;;;;4990953;28;93545;-72
2021/12/06 13:48:08;;;;;;;43.95;26.17;;;;;;;;;;4991461;28;92512;-72
2021/12/06 13:50:34;;;;;;;52.10;26.52;;;;;;;;;;4991336;28;93191;-72
2021/12/06 13:53:01;;;;;;;41.72;23.83;;;;;;;;;;4991935;28;93218;-72
2021/12/06 13:55:29;;;;;;;44.60;25.13;;;;;;;;;;4994121;28;92402;-72
2021/12/06 13:58:04;;;;;;;42.63;23.95;;;;;;;;;;4988781;28;96150;-72
2021/12/06 14:00:41;;;;;;;50.10;27.23;;;;;;;;;;4991400;28;92532;-72
2021/12/06 14:03:12;;;;;;;49.08;27.27;;;;;;;;;;4972455;28;93059;-72
2021/12/06 14:05:41;;;;;;;47.55;27.58;;;;;;;;;;4971203;28;94085;-72
2021/12/06 14:08:08;;;;;;;36.85;19.63;;;;;;;;;;4982982;28;92517;-72
2021/12/06 14:10:35;;;;;;;40.47;24.55;;;;;;;;;;4990828;28;94047;-72
2021/12/06 14:13:07;;;;;;;39.60;25.52;;;;;;;;;;4991217;28;94011;-72
2021/12/06 14:18:14;;;;;;;38.47;23.35;;;;;;;;;;4993680;28;92645;-72
2021/12/06 14:20:47;;;;;;;28.63;20.88;;;;;;;;;;4991944;28;92614;-72
2021/12/06 14:23:15;;;;;;;30.63;21.38;;;;;;;;;;4973207;28;96095;-72
2021/12/06 14:25:52;;;;;;;29.08;21.35;;;;;;;;;;4973997;28;93597;-73
2021/12/06 14:28:20;;;;;;;25.77;19.92;;;;;;;;;;4974303;28;92544;-72
2021/12/06 14:30:48;;;;;;;30.80;21.13;;;;;;;;;;4973615;28;94061;-72
2021/12/06 14:33:15;;;;;;;24.98;19.45;;;;;;;;;;4974131;28;92461;-72
2021/12/06 14:35:43;;;;;;;22.65;18.73;;;;;;;;;;4977875;28;92551;-71
2021/12/06 14:38:11;;;;;;;31.25;21.88;;;;;;;;;;4993380;28;94341;-72
2021/12/06 14:40:41;;;;;;;27.05;20.15;;;;;;;;;;4997325;28;93590;-71